Time;durP1;ratioP1;P1;durP2;ratioP2;P2;SDS_P1;SDS_P2;PMS_P1;PMS_P2;Temp;Humidity;BMP_temperature;BMP_pressure;BME280_temperature;BME280_humidity;BME280_pressure;Samples;Min_cycle;Max_cycle;Signal;HPM_P1;HPM_P2
2021/03/13 00:00:26;;;;;;;;;;;10.40;68.50;;;;;;5044082;28;20325;-58
2021/03/13 00:02:51;;;;;;;;;;;10.40;68.60;;;;;;5046918;28;19921;-58
2021/03/13 00:05:20;;;;;;;;;;;10.40;69.50;;;;;;5045401;28;19909;-59
2021/03/13 00:07:46;;;;;;;;;;;10.30;68.80;;;;;;5029233;28;19917;-59
2021/03/13 00:10:11;;;;;;;;;;;10.30;69.00;;;;;;5045248;28;19923;-58
2021/03/13 00:12:37;;;;;;;;;;;10.30;69.10;;;;;;5041309;28;19909;-61
2021/03/13 00:15:03;;;;;;;;;;;10.30;69.30;;;;;;5045958;28;19913;-59
2021/03/13 00:17:28;;;;;;;;;;;10.30;69.40;;;;;;5046999;28;20012;-59
2021/03/13 00:19:54;;;;;;;;;;;10.30;69.50;;;;;;5045509;28;19916;-59
2021/03/13 00:22:19;;;;;;;;;;;10.30;69.80;;;;;;5045596;28;20148;-60
2021/03/13 00:24:44;;;;;;;;;;;10.30;69.70;;;;;;5060687;28;20777;-60
2021/03/13 00:27:10;;;;;;;;;;;10.30;70.50;;;;;;5042760;28;19921;-60
2021/03/13 00:29:36;;;;;;;;;;;10.30;70.00;;;;;;5046239;28;19920;-57
2021/03/13 00:32:01;;;;;;;;;;;10.30;70.20;;;;;;5037226;28;19909;-57
2021/03/13 00:34:27;;;;;;;;;;;10.20;70.10;;;;;;5028415;28;19913;-56
2021/03/13 00:36:52;;;;;;;;;;;10.30;70.20;;;;;;5045376;28;19913;-58
2021/03/13 00:39:18;;;;;;;;;;;10.30;70.40;;;;;;5044165;28;19916;-59
2021/03/13 00:41:43;;;;;;;;;;;10.20;70.30;;;;;;5044876;28;19912;-59
2021/03/13 00:44:08;;;;;;;;;;;10.20;70.30;;;;;;5044752;28;19913;-57
2021/03/13 00:46:34;;;;;;;;;;;10.20;70.40;;;;;;5046131;28;19905;-60
2021/03/13 00:49:00;;;;;;;;;;;10.30;70.60;;;;;;5043723;28;20425;-59
2021/03/13 00:51:25;;;;;;;;;;;10.20;70.70;;;;;;5046210;28;20007;-59
2021/03/13 00:53:51;;;;;;;;;;;10.20;70.80;;;;;;5050060;28;20283;-59
2021/03/13 00:56:16;;;;;;;;;;;10.20;70.80;;;;;;5048663;28;19909;-59
2021/03/13 00:58:41;;;;;;;;;;;10.20;70.80;;;;;;5050298;28;19966;-59
2021/03/13 01:01:07;;;;;;;;;;;10.20;70.80;;;;;;5048447;28;19958;-59
2021/03/13 01:03:32;;;;;;;;;;;10.20;71.00;;;;;;5046939;28;19921;-60
2021/03/13 01:05:58;;;;;;;;;;;10.20;71.70;;;;;;5046884;28;19913;-60
2021/03/13 01:08:23;;;;;;;;;;;10.20;71.10;;;;;;5048931;28;19915;-58
2021/03/13 01:10:49;;;;;;;;;;;10.10;71.10;;;;;;5049719;28;20299;-60
2021/03/13 01:13:14;;;;;;;;;;;10.10;71.10;;;;;;5045635;28;20229;-58
2021/03/13 01:15:40;;;;;;;;;;;10.10;71.40;;;;;;5039572;28;20342;-58
2021/03/13 01:18:05;;;;;;;;;;;10.10;71.20;;;;;;5047459;28;19909;-60
2021/03/13 01:20:31;;;;;;;;;;;10.10;71.40;;;;;;5049587;28;19916;-59
2021/03/13 01:22:56;;;;;;;;;;;10.10;71.40;;;;;;5047992;28;19958;-56
2021/03/13 01:25:22;;;;;;;;;;;10.20;71.40;;;;;;5049509;28;19909;-56
2021/03/13 01:27:47;;;;;;;;;;;10.10;71.40;;;;;;5049093;28;19909;-59
2021/03/13 01:30:13;;;;;;;;;;;10.10;72.10;;;;;;5046776;28;19917;-56
2021/03/13 01:32:39;;;;;;;;;;;10.10;71.50;;;;;;5047676;28;19927;-59
2021/03/13 01:35:05;;;;;;;;;;;10.10;71.60;;;;;;5046689;28;20003;-59
2021/03/13 01:37:30;;;;;;;;;;;10.10;71.60;;;;;;5047841;28;19908;-62
2021/03/13 01:39:56;;;;;;;;;;;10.10;71.60;;;;;;5048064;28;19924;-57
2021/03/13 01:42:21;;;;;;;;;;;10.10;71.70;;;;;;5045306;28;19962;-59
2021/03/13 01:44:46;;;;;;;;;;;10.10;71.60;;;;;;5040357;28;19912;-57
2021/03/13 01:47:17;;;;;;;;;;;10.10;71.70;;;;;;5044225;28;19913;-59
2021/03/13 01:49:43;;;;;;;;;;;10.00;71.60;;;;;;5048052;28;19959;-59
2021/03/13 01:52:09;;;;;;;;;;;10.00;71.60;;;;;;5063011;28;20031;-57
2021/03/13 01:54:34;;;;;;;;;;;10.10;71.80;;;;;;5046587;28;20482;-57
2021/03/13 01:57:00;;;;;;;;;;;10.00;71.60;;;;;;5062208;28;19917;-59
2021/03/13 01:59:25;;;;;;;;;;;10.00;71.70;;;;;;5048828;28;19955;-58
2021/03/13 02:01:51;;;;;;;;;;;10.00;71.80;;;;;;5063190;28;20387;-60
2021/03/13 02:04:16;;;;;;;;;;;10.00;71.80;;;;;;5046527;28;19917;-59
2021/03/13 02:06:46;;;;;;;;;;;10.00;71.80;;;;;;5046841;28;20019;-59
2021/03/13 02:09:14;;;;;;;;;;;10.00;71.90;;;;;;5046369;28;19987;-58
2021/03/13 02:12:03;;;;;;;;;;;10.00;72.00;;;;;;5048141;28;19996;-60
2021/03/13 02:14:31;;;;;;;;;;;10.00;71.90;;;;;;5027054;28;20352;-57
2021/03/13 02:17:17;;;;;;;;;;;10.00;72.00;;;;;;5053238;28;19915;-57
2021/03/13 02:20:15;;;;;;;;;;;10.00;71.90;;;;;;5039933;28;19930;-59
2021/03/13 02:22:41;;;;;;;;;;;10.00;72.10;;;;;;5012254;28;19909;-60
2021/03/13 02:25:28;;;;;;;;;;;10.00;72.10;;;;;;5022720;28;20012;-57
2021/03/13 02:28:02;;;;;;;;;;;10.00;72.00;;;;;;5021953;28;19910;-59
2021/03/13 02:30:27;;;;;;;;;;;10.00;72.10;;;;;;5032985;28;19995;-60
2021/03/13 02:32:54;;;;;;;;;;;9.90;72.10;;;;;;5042912;28;21880;-59
2021/03/13 02:35:21;;;;;;;;;;;9.90;72.10;;;;;;5032279;28;19956;-56
2021/03/13 02:37:50;;;;;;;;;;;9.90;72.20;;;;;;5043890;28;20428;-57
2021/03/13 02:40:16;;;;;;;;;;;9.90;72.30;;;;;;5025352;28;19915;-59
2021/03/13 02:43:01;;;;;;;;;;;9.90;72.20;;;;;;5043649;28;19913;-58
2021/03/13 02:45:27;;;;;;;;;;;9.90;72.30;;;;;;5042407;28;19944;-59
2021/03/13 02:47:52;;;;;;;;;;;9.90;72.40;;;;;;5042823;28;20447;-59
2021/03/13 02:50:18;;;;;;;;;;;9.90;72.40;;;;;;5025672;28;20011;-58
2021/03/13 02:52:43;;;;;;;;;;;9.90;72.50;;;;;;5043504;28;20327;-57
2021/03/13 02:55:10;;;;;;;;;;;9.90;72.50;;;;;;5025364;28;19971;-58
2021/03/13 02:57:36;;;;;;;;;;;9.80;72.50;;;;;;5027684;28;20000;-60
2021/03/13 03:00:04;;;;;;;;;;;9.80;72.50;;;;;;5023506;28;19920;-57
2021/03/13 03:02:30;;;;;;;;;;;9.80;72.50;;;;;;5043233;28;19921;-58
2021/03/13 03:04:56;;;;;;;;;;;9.80;72.50;;;;;;5026141;28;20307;-57
2021/03/13 03:07:25;;;;;;;;;;;9.80;72.50;;;;;;5022541;28;19910;-60
2021/03/13 03:09:51;;;;;;;;;;;9.80;72.70;;;;;;5027573;28;19917;-56
2021/03/13 03:12:16;;;;;;;;;;;9.80;72.70;;;;;;5033735;28;19913;-59
2021/03/13 03:14:41;;;;;;;;;;;9.70;72.60;;;;;;5041955;28;19952;-58
2021/03/13 03:17:07;;;;;;;;;;;9.80;72.70;;;;;;5026030;28;19948;-58
2021/03/13 03:19:32;;;;;;;;;;;9.80;72.80;;;;;;5043079;28;19959;-58
2021/03/13 03:21:59;;;;;;;;;;;9.70;72.80;;;;;;5025337;28;20632;-59
2021/03/13 03:24:24;;;;;;;;;;;9.80;72.80;;;;;;5035137;28;19909;-58
2021/03/13 03:26:50;;;;;;;;;;;9.60;73.40;;;;;;5026119;28;19920;-59
2021/03/13 03:29:15;;;;;;;;;;;9.70;72.80;;;;;;5041703;28;20078;-59
2021/03/13 03:31:40;;;;;;;;;;;9.70;72.80;;;;;;5026994;28;19909;-57
2021/03/13 03:34:06;;;;;;;;;;;9.70;72.80;;;;;;5024972;28;19917;-60
2021/03/13 03:36:31;;;;;;;;;;;9.70;72.90;;;;;;5023087;28;19910;-59
2021/03/13 03:38:57;;;;;;;;;;;9.70;72.90;;;;;;5036202;28;19914;-59
2021/03/13 03:41:22;;;;;;;;;;;9.50;73.00;;;;;;5025742;28;19909;-57
2021/03/13 03:43:55;;;;;;;;;;;9.70;73.00;;;;;;5025885;28;20702;-58
2021/03/13 03:46:21;;;;;;;;;;;9.70;73.00;;;;;;5025950;28;19909;-60
2021/03/13 03:48:46;;;;;;;;;;;9.70;73.00;;;;;;5042885;28;20012;-58
2021/03/13 03:51:15;;;;;;;;;;;9.70;73.00;;;;;;5023623;28;19916;-60
2021/03/13 03:53:41;;;;;;;;;;;9.70;73.10;;;;;;5027085;28;19957;-60
2021/03/13 03:56:06;;;;;;;;;;;9.70;73.00;;;;;;5032266;28;19916;-60
2021/03/13 03:58:41;;;;;;;;;;;9.60;73.10;;;;;;5042600;28;19909;-57
2021/03/13 04:01:07;;;;;;;;;;;9.60;73.10;;;;;;5024261;28;19916;-57
2021/03/13 04:03:33;;;;;;;;;;;9.60;73.10;;;;;;5025900;28;19928;-56
2021/03/13 04:05:58;;;;;;;;;;;9.60;73.30;;;;;;5023022;28;19935;-57
2021/03/13 04:08:24;;;;;;;;;;;9.60;73.20;;;;;;5031490;28;20402;-59
2021/03/13 04:10:52;;;;;;;;;;;9.60;73.20;;;;;;5027053;28;19917;-60
2021/03/13 04:13:18;;;;;;;;;;;9.60;73.10;;;;;;5041197;28;20235;-59
2021/03/13 04:15:44;;;;;;;;;;;9.60;73.10;;;;;;5026155;28;20395;-59
2021/03/13 04:18:10;;;;;;;;;;;9.60;73.30;;;;;;5024755;28;20007;-60
2021/03/13 04:20:38;;;;;;;;;;;9.60;73.30;;;;;;5024842;28;19992;-56
2021/03/13 04:23:04;;;;;;;;;;;9.60;73.30;;;;;;5025997;28;19971;-58
2021/03/13 04:25:30;;;;;;;;;;;9.50;73.30;;;;;;5027911;28;19953;-58
2021/03/13 04:27:55;;;;;;;;;;;9.50;73.30;;;;;;5046216;28;19909;-57
2021/03/13 04:30:21;;;;;;;;;;;9.60;73.50;;;;;;5026284;28;20061;-58
2021/03/13 04:32:47;;;;;;;;;;;9.50;73.30;;;;;;5030859;28;20372;-57
2021/03/13 04:35:13;;;;;;;;;;;9.50;73.30;;;;;;5028145;28;19913;-60
2021/03/13 04:37:38;;;;;;;;;;;9.50;73.30;;;;;;5026772;28;20056;-56
2021/03/13 04:40:04;;;;;;;;;;;9.50;73.30;;;;;;5027838;28;19963;-58
2021/03/13 04:42:30;;;;;;;;;;;9.50;73.30;;;;;;5044674;28;19960;-58
2021/03/13 04:44:55;;;;;;;;;;;9.50;73.30;;;;;;5044984;28;19959;-60
2021/03/13 04:47:21;;;;;;;;;;;9.50;73.60;;;;;;5044569;28;20273;-60
2021/03/13 04:49:46;;;;;;;;;;;9.50;73.40;;;;;;5029344;28;19909;-57
2021/03/13 04:52:11;;;;;;;;;;;9.50;73.30;;;;;;5044400;28;19920;-58
2021/03/13 04:54:37;;;;;;;;;;;9.50;73.30;;;;;;5028028;28;19913;-58
2021/03/13 04:57:02;;;;;;;;;;;9.50;73.40;;;;;;5027835;28;20272;-59
2021/03/13 04:59:29;;;;;;;;;;;9.40;73.30;;;;;;5029239;28;19909;-60
2021/03/13 05:01:54;;;;;;;;;;;9.50;73.30;;;;;;5045248;28;19913;-57
2021/03/13 05:04:20;;;;;;;;;;;9.40;73.30;;;;;;5029118;28;19924;-59
2021/03/13 05:06:45;;;;;;;;;;;9.40;73.30;;;;;;5030196;28;19970;-59
2021/03/13 05:09:11;;;;;;;;;;;9.40;73.30;;;;;;5027139;28;19909;-60
2021/03/13 05:11:36;;;;;;;;;;;9.40;73.30;;;;;;5025074;28;20281;-57
2021/03/13 05:14:02;;;;;;;;;;;9.40;73.20;;;;;;5027740;28;19921;-59
2021/03/13 05:16:28;;;;;;;;;;;9.40;73.30;;;;;;5044661;28;19996;-58
2021/03/13 05:18:53;;;;;;;;;;;9.40;73.30;;;;;;5030440;28;19909;-60
2021/03/13 05:21:18;;;;;;;;;;;9.40;73.30;;;;;;5026428;28;20059;-58
2021/03/13 05:23:44;;;;;;;;;;;9.40;73.30;;;;;;5028321;28;19912;-59
2021/03/13 05:26:09;;;;;;;;;;;9.40;73.30;;;;;;5028219;28;19910;-57
2021/03/13 05:28:35;;;;;;;;;;;9.40;73.30;;;;;;5030042;28;20360;-61
2021/03/13 05:31:00;;;;;;;;;;;9.40;73.30;;;;;;5027841;28;19936;-58
2021/03/13 05:33:26;;;;;;;;;;;9.40;73.30;;;;;;5027065;28;19917;-60
2021/03/13 05:35:51;;;;;;;;;;;9.30;73.20;;;;;;5028100;28;19987;-59
2021/03/13 05:38:17;;;;;;;;;;;9.30;73.20;;;;;;5028420;28;20394;-58
2021/03/13 05:40:42;;;;;;;;;;;9.30;73.20;;;;;;5044358;28;20000;-60
2021/03/13 05:43:10;;;;;;;;;;;9.30;73.20;;;;;;5028300;28;21016;-57
2021/03/13 05:45:35;;;;;;;;;;;9.30;73.20;;;;;;5027012;28;19919;-58
2021/03/13 05:48:01;;;;;;;;;;;9.30;73.10;;;;;;5033558;28;19909;-59
2021/03/13 05:50:26;;;;;;;;;;;9.30;73.10;;;;;;5045812;28;19963;-58
2021/03/13 05:52:53;;;;;;;;;;;9.30;73.10;;;;;;5036391;28;19920;-58
2021/03/13 05:55:18;;;;;;;;;;;9.30;73.00;;;;;;5027417;28;19913;-59
2021/03/13 05:57:44;;;;;;;;;;;9.30;73.00;;;;;;5036388;28;19910;-58
2021/03/13 06:00:10;;;;;;;;;;;9.30;72.90;;;;;;5041686;28;19910;-59
2021/03/13 06:02:35;;;;;;;;;;;9.30;72.80;;;;;;5034541;28;20465;-58
2021/03/13 06:05:01;;;;;;;;;;;9.30;72.80;;;;;;5026094;28;19967;-57
2021/03/13 06:07:26;;;;;;;;;;;9.30;72.80;;;;;;5037060;28;20132;-61
2021/03/13 06:09:55;;;;;;;;;;;9.30;72.70;;;;;;5043697;28;19913;-58
2021/03/13 06:12:20;;;;;;;;;;;9.20;72.60;;;;;;5020932;28;19935;-58
2021/03/13 06:14:49;;;;;;;;;;;9.20;72.60;;;;;;5042920;28;20470;-58
2021/03/13 06:17:15;;;;;;;;;;;9.20;72.60;;;;;;5027725;28;19955;-59
2021/03/13 06:19:48;;;;;;;;;;;9.20;72.60;;;;;;5027395;28;19913;-58
2021/03/13 06:22:32;;;;;;;;;;;9.20;72.60;;;;;;5037916;28;19916;-59
2021/03/13 06:25:13;;;;;;;;;;;9.20;72.50;;;;;;5025335;28;19917;-59
2021/03/13 06:27:38;;;;;;;;;;;9.20;72.50;;;;;;5026881;28;20145;-59
2021/03/13 06:30:07;;;;;;;;;;;9.20;72.50;;;;;;5042084;28;20499;-57
2021/03/13 06:32:36;;;;;;;;;;;9.20;72.50;;;;;;5025691;28;19920;-59
2021/03/13 06:35:17;;;;;;;;;;;9.20;72.60;;;;;;5026603;28;19921;-57
2021/03/13 06:37:43;;;;;;;;;;;9.20;72.50;;;;;;5026151;28;20018;-61
2021/03/13 06:40:08;;;;;;;;;;;9.20;72.50;;;;;;5025021;28;19941;-60
2021/03/13 06:42:34;;;;;;;;;;;9.20;72.50;;;;;;5028110;28;20199;-57
2021/03/13 06:45:00;;;;;;;;;;;9.20;72.50;;;;;;5026103;28;19914;-57
2021/03/13 06:47:32;;;;;;;;;;;9.20;72.50;;;;;;5035138;28;19975;-57
2021/03/13 06:50:10;;;;;;;;;;;9.20;72.60;;;;;;5025659;28;19955;-58
2021/03/13 06:52:35;;;;;;;;;;;9.30;72.80;;;;;;5026819;28;19909;-59
2021/03/13 06:55:01;;;;;;;;;;;9.20;72.50;;;;;;5041902;28;20368;-57
2021/03/13 06:57:26;;;;;;;;;;;9.20;72.50;;;;;;5026660;28;19920;-58
2021/03/13 06:59:52;;;;;;;;;;;9.20;72.60;;;;;;5028166;28;19913;-59
2021/03/13 07:02:20;;;;;;;;;;;9.20;72.50;;;;;;5025360;28;19921;-56
2021/03/13 07:04:46;;;;;;;;;;;9.20;72.40;;;;;;5026460;28;19913;-57
2021/03/13 07:07:11;;;;;;;;;;;9.20;72.60;;;;;;5026390;28;20291;-57
2021/03/13 07:09:51;;;;;;;;;;;9.20;72.50;;;;;;5028027;28;19909;-60
2021/03/13 07:12:23;;;;;;;;;;;9.30;72.50;;;;;;5035867;28;19929;-58
2021/03/13 07:14:49;;;;;;;;;;;9.20;72.40;;;;;;5026850;28;19983;-58
2021/03/13 07:17:14;;;;;;;;;;;9.30;72.40;;;;;;5025247;28;20327;-58
2021/03/13 07:19:40;;;;;;;;;;;9.20;72.40;;;;;;5028201;28;19936;-60
2021/03/13 07:22:06;;;;;;;;;;;9.30;72.30;;;;;;5037366;28;19963;-59
2021/03/13 07:24:31;;;;;;;;;;;9.30;72.30;;;;;;5026814;28;19914;-59
2021/03/13 07:26:57;;;;;;;;;;;9.30;72.40;;;;;;5038131;28;19916;-58
2021/03/13 07:29:22;;;;;;;;;;;9.20;72.30;;;;;;5024271;28;20275;-57
2021/03/13 07:31:52;;;;;;;;;;;9.30;72.30;;;;;;5028466;28;19984;-58
2021/03/13 07:34:18;;;;;;;;;;;9.30;72.30;;;;;;5027274;28;19913;-60
2021/03/13 07:36:45;;;;;;;;;;;9.30;72.20;;;;;;5026552;28;19939;-58
2021/03/13 07:39:14;;;;;;;;;;;9.30;72.10;;;;;;5041539;28;19960;-60
2021/03/13 07:41:39;;;;;;;;;;;9.30;72.20;;;;;;5026293;28;19913;-59
2021/03/13 07:44:05;;;;;;;;;;;9.40;72.10;;;;;;5023713;28;19909;-58
2021/03/13 07:46:31;;;;;;;;;;;9.40;72.00;;;;;;5029682;28;19916;-61
2021/03/13 07:48:56;;;;;;;;;;;9.40;72.00;;;;;;5030178;28;19916;-57
2021/03/13 07:51:21;;;;;;;;;;;9.40;71.90;;;;;;5026593;28;19917;-59
2021/03/13 07:53:47;;;;;;;;;;;9.40;71.80;;;;;;5041803;28;19917;-59
2021/03/13 07:56:13;;;;;;;;;;;9.40;71.70;;;;;;5028816;28;19909;-57
2021/03/13 07:58:42;;;;;;;;;;;9.40;71.70;;;;;;5031231;28;19920;-60
2021/03/13 08:01:07;;;;;;;;;;;9.40;71.80;;;;;;5036756;28;20421;-59
2021/03/13 08:03:34;;;;;;;;;;;9.40;71.80;;;;;;5038814;28;20015;-59
2021/03/13 08:06:13;;;;;;;;;;;9.50;71.80;;;;;;5031581;28;20067;-59
2021/03/13 08:08:39;;;;;;;;;;;9.50;71.80;;;;;;5021520;28;19909;-57
2021/03/13 08:11:11;;;;;;;;;;;9.50;71.60;;;;;;5009598;28;19912;-61
2021/03/13 08:13:40;;;;;;;;;;;9.50;71.50;;;;;;5037783;28;20008;-57
2021/03/13 08:16:05;;;;;;;;;;;9.50;71.20;;;;;;5025737;28;19913;-57
2021/03/13 08:18:44;;;;;;;;;;;9.50;70.80;;;;;;5032603;28;20498;-59
2021/03/13 08:21:19;;;;;;;;;;;9.60;71.10;;;;;;5045633;28;20015;-60
2021/03/13 08:23:50;;;;;;;;;;;9.60;70.90;;;;;;5030417;28;19916;-60
2021/03/13 08:26:19;;;;;;;;;;;9.60;70.80;;;;;;5019094;28;19925;-57
2021/03/13 08:28:48;;;;;;;;;;;9.60;70.90;;;;;;5028631;28;20020;-57
2021/03/13 08:31:23;;;;;;;;;;;9.70;70.20;;;;;;5026054;28;19921;-57
2021/03/13 08:33:48;;;;;;;;;;;9.70;70.40;;;;;;5027957;28;20297;-60
2021/03/13 08:36:14;;;;;;;;;;;9.70;70.20;;;;;;5023453;28;20198;-58
2021/03/13 08:38:59;;;;;;;;;;;9.70;69.30;;;;;;5025808;28;19909;-58
2021/03/13 08:41:45;;;;;;;;;;;9.70;69.40;;;;;;5029230;28;19924;-61
2021/03/13 08:44:26;;;;;;;;;;;9.80;69.20;;;;;;5030568;28;20287;-58
2021/03/13 08:46:55;;;;;;;;;;;9.80;68.70;;;;;;5028215;28;19947;-59
2021/03/13 08:49:25;;;;;;;;;;;9.80;68.70;;;;;;5024419;28;21493;-58
2021/03/13 08:52:09;;;;;;;;;;;9.80;67.70;;;;;;5026147;28;19913;-59
2021/03/13 08:54:38;;;;;;;;;;;9.90;67.80;;;;;;5028917;28;20419;-58
2021/03/13 08:57:06;;;;;;;;;;;9.90;67.40;;;;;;5026603;28;19919;-57
2021/03/13 08:59:32;;;;;;;;;;;9.90;67.40;;;;;;5030974;28;19963;-60
2021/03/13 09:02:01;;;;;;;;;;;9.90;66.90;;;;;;5024340;28;19920;-56
2021/03/13 09:04:28;;;;;;;;;;;10.00;66.80;;;;;;5024963;28;19924;-60
2021/03/13 09:06:53;;;;;;;;;;;10.00;66.10;;;;;;5026202;28;19913;-58
2021/03/13 09:09:18;;;;;;;;;;;10.00;66.10;;;;;;5030454;28;19967;-58
2021/03/13 09:11:45;;;;;;;;;;;10.00;65.90;;;;;;5021638;28;20406;-56
2021/03/13 09:14:12;;;;;;;;;;;10.00;65.40;;;;;;5024402;28;19917;-57
2021/03/13 09:16:38;;;;;;;;;;;10.10;64.90;;;;;;5024689;28;19920;-60
2021/03/13 09:19:04;;;;;;;;;;;10.10;64.20;;;;;;5021992;28;19914;-57
2021/03/13 09:21:36;;;;;;;;;;;10.20;64.10;;;;;;5022851;28;20280;-58
2021/03/13 09:24:05;;;;;;;;;;;10.20;64.30;;;;;;5027440;28;20008;-59
2021/03/13 09:26:30;;;;;;;;;;;10.20;63.30;;;;;;5022254;28;19945;-56
2021/03/13 09:28:56;;;;;;;;;;;10.20;63.40;;;;;;5025275;28;19956;-57
2021/03/13 09:31:21;;;;;;;;;;;10.20;63.40;;;;;;5016375;28;19974;-61
2021/03/13 09:33:47;;;;;;;;;;;10.30;63.70;;;;;;5022004;28;19925;-58
2021/03/13 09:36:12;;;;;;;;;;;10.30;63.20;;;;;;5015928;28;19921;-58
2021/03/13 09:38:38;;;;;;;;;;;10.30;62.90;;;;;;5026846;28;20525;-57
2021/03/13 09:41:13;;;;;;;;;;;10.30;62.90;;;;;;5022393;28;20391;-60
2021/03/13 09:43:39;;;;;;;;;;;10.30;63.20;;;;;;5021032;28;19948;-58
2021/03/13 09:46:16;;;;;;;;;;;10.40;63.10;;;;;;5017266;28;20411;-57
2021/03/13 09:48:42;;;;;;;;;;;10.40;62.20;;;;;;5025749;28;19921;-58
2021/03/13 09:51:08;;;;;;;;;;;10.40;62.50;;;;;;5024501;28;19917;-58
2021/03/13 09:53:33;;;;;;;;;;;10.50;62.30;;;;;;5022933;28;19963;-59
2021/03/13 09:55:59;;;;;;;;;;;10.50;62.00;;;;;;5019570;28;19922;-60
2021/03/13 09:58:24;;;;;;;;;;;10.50;62.40;;;;;;5016743;28;19914;-57
2021/03/13 10:00:49;;;;;;;;;;;10.50;62.50;;;;;;5020472;28;19920;-57
2021/03/13 10:03:15;;;;;;;;;;;10.60;62.30;;;;;;5034872;28;19928;-60
2021/03/13 10:05:41;;;;;;;;;;;10.60;61.80;;;;;;5034896;28;19914;-58
2021/03/13 10:08:07;;;;;;;;;;;10.60;61.70;;;;;;5020021;28;20032;-57
2021/03/13 10:10:32;;;;;;;;;;;10.60;61.80;;;;;;5025870;28;19917;-58
2021/03/13 10:13:01;;;;;;;;;;;10.70;61.80;;;;;;5025151;28;19910;-59
2021/03/13 10:15:30;;;;;;;;;;;10.60;61.90;;;;;;5015959;28;19968;-57
2021/03/13 10:17:55;;;;;;;;;;;10.70;61.50;;;;;;5019461;28;19923;-58
2021/03/13 10:20:21;;;;;;;;;;;10.70;61.30;;;;;;5018544;28;19913;-59
2021/03/13 10:22:47;;;;;;;;;;;10.80;61.80;;;;;;5020259;28;19913;-57
2021/03/13 10:25:12;;;;;;;;;;;10.80;61.00;;;;;;5020335;28;19963;-58
2021/03/13 10:27:37;;;;;;;;;;;10.80;60.60;;;;;;5016985;28;19944;-60
2021/03/13 10:30:06;;;;;;;;;;;10.90;60.10;;;;;;5016702;28;20296;-59
2021/03/13 10:32:33;;;;;;;;;;;10.80;60.20;;;;;;5017869;28;19920;-59
2021/03/13 10:35:08;;;;;;;;;;;10.90;59.90;;;;;;5019285;28;19921;-59
2021/03/13 10:37:34;;;;;;;;;;;10.80;59.60;;;;;;5017483;28;19927;-60
2021/03/13 10:40:00;;;;;;;;;;;11.00;59.00;;;;;;5016485;28;19921;-60
2021/03/13 10:42:25;;;;;;;;;;;11.00;59.10;;;;;;5017917;28;20008;-57
2021/03/13 10:44:51;;;;;;;;;;;11.10;58.70;;;;;;5015273;28;19924;-58
2021/03/13 10:47:28;;;;;;;;;;;11.10;58.80;;;;;;5016398;28;20474;-58
2021/03/13 10:49:58;;;;;;;;;;;11.10;58.10;;;;;;5023663;28;20268;-57
2021/03/13 10:52:27;;;;;;;;;;;11.20;58.40;;;;;;5023331;28;19924;-58
2021/03/13 10:54:52;;;;;;;;;;;11.20;57.90;;;;;;5017604;28;19925;-57
2021/03/13 10:57:18;;;;;;;;;;;11.30;57.90;;;;;;5022409;28;19940;-57
2021/03/13 10:59:43;;;;;;;;;;;11.20;58.00;;;;;;5031896;28;20031;-57
2021/03/13 11:02:09;;;;;;;;;;;11.30;57.90;;;;;;5034505;28;19917;-57
2021/03/13 11:04:34;;;;;;;;;;;11.40;57.80;;;;;;5014166;28;19924;-60
2021/03/13 11:07:00;;;;;;;;;;;11.40;57.10;;;;;;5019130;28;19970;-57
2021/03/13 11:09:26;;;;;;;;;;;11.40;57.40;;;;;;5020917;28;19920;-58
2021/03/13 11:11:51;;;;;;;;;;;11.50;57.00;;;;;;5017014;28;20378;-59
2021/03/13 11:14:17;;;;;;;;;;;11.50;57.00;;;;;;5020061;28;19917;-57
2021/03/13 11:16:44;;;;;;;;;;;11.50;57.30;;;;;;5033316;28;19971;-58
2021/03/13 11:19:11;;;;;;;;;;;11.60;57.50;;;;;;5029396;28;19921;-58
2021/03/13 11:21:36;;;;;;;;;;;11.60;57.70;;;;;;5022725;28;19913;-56
2021/03/13 11:24:02;;;;;;;;;;;11.70;57.10;;;;;;5018980;28;19916;-58
2021/03/13 11:26:27;;;;;;;;;;;11.80;57.10;;;;;;5020078;28;19917;-59
2021/03/13 11:28:53;;;;;;;;;;;11.80;57.10;;;;;;5026340;28;19913;-57
2021/03/13 11:31:18;;;;;;;;;;;11.80;56.80;;;;;;5021340;28;19917;-57
2021/03/13 11:33:45;;;;;;;;;;;11.80;57.00;;;;;;5024933;28;20048;-57
2021/03/13 11:36:10;;;;;;;;;;;11.90;57.00;;;;;;5022874;28;20502;-59
2021/03/13 11:38:36;;;;;;;;;;;11.90;57.30;;;;;;5023716;28;19909;-59
2021/03/13 11:41:04;;;;;;;;;;;12.00;58.00;;;;;;5020889;28;19920;-58
2021/03/13 11:43:30;;;;;;;;;;;11.90;57.60;;;;;;5007642;28;19913;-57
2021/03/13 11:45:56;;;;;;;;;;;12.00;57.20;;;;;;5019566;28;19920;-57
2021/03/13 11:48:21;;;;;;;;;;;12.00;56.90;;;;;;5038788;28;19916;-56
2021/03/13 11:50:47;;;;;;;;;;;12.10;57.30;;;;;;5040900;28;19930;-58
2021/03/13 11:53:12;;;;;;;;;;;12.10;57.50;;;;;;5022374;28;20557;-60
2021/03/13 11:55:37;;;;;;;;;;;12.10;57.90;;;;;;5024448;28;19919;-58
2021/03/13 11:58:03;;;;;;;;;;;12.10;58.50;;;;;;5032930;28;19928;-59
2021/03/13 12:00:28;;;;;;;;;;;12.10;58.30;;;;;;5036794;28;20778;-57
2021/03/13 12:02:54;;;;;;;;;;;12.10;58.30;;;;;;5019914;28;19933;-58
2021/03/13 12:05:19;;;;;;;;;;;12.10;58.40;;;;;;5019585;28;19928;-59
2021/03/13 12:07:45;;;;;;;;;;;12.10;58.50;;;;;;5023167;28;20363;-59
2021/03/13 12:10:10;;;;;;;;;;;12.20;58.40;;;;;;5022769;28;19913;-58
2021/03/13 12:12:36;;;;;;;;;;;12.20;58.30;;;;;;5019753;28;20395;-59
2021/03/13 12:15:03;;;;;;;;;;;12.20;58.40;;;;;;5022185;28;20376;-59
2021/03/13 12:17:28;;;;;;;;;;;12.20;58.60;;;;;;5005465;28;20028;-59
2021/03/13 12:19:54;;;;;;;;;;;12.20;58.50;;;;;;5023326;28;19939;-58
2021/03/13 12:22:21;;;;;;;;;;;12.30;58.20;;;;;;5022569;28;19928;-58
2021/03/13 12:24:47;;;;;;;;;;;12.20;58.10;;;;;;5021110;28;19952;-58
2021/03/13 12:27:12;;;;;;;;;;;12.20;58.20;;;;;;5021677;28;19998;-58
2021/03/13 12:29:38;;;;;;;;;;;12.30;58.10;;;;;;5024228;28;20300;-58
2021/03/13 12:32:03;;;;;;;;;;;12.30;58.30;;;;;;5020034;28;19913;-59
2021/03/13 12:34:29;;;;;;;;;;;12.30;58.10;;;;;;5020179;28;19925;-57
2021/03/13 12:36:54;;;;;;;;;;;12.30;58.00;;;;;;5021587;28;19924;-59
2021/03/13 12:39:20;;;;;;;;;;;12.30;58.10;;;;;;5024571;28;19913;-57
2021/03/13 12:41:45;;;;;;;;;;;12.40;58.30;;;;;;5018862;28;19913;-58
2021/03/13 12:44:11;;;;;;;;;;;12.40;58.30;;;;;;5020393;28;19914;-57
2021/03/13 12:46:36;;;;;;;;;;;12.40;58.70;;;;;;5023674;28;19996;-57
2021/03/13 12:49:02;;;;;;;;;;;12.50;59.00;;;;;;5026361;28;19928;-59
2021/03/13 12:51:28;;;;;;;;;;;12.50;59.00;;;;;;5027995;28;20475;-58
2021/03/13 12:53:54;;;;;;;;;;;12.50;58.90;;;;;;5024760;28;19917;-57
2021/03/13 12:56:19;;;;;;;;;;;12.50;59.20;;;;;;5021977;28;19932;-58
2021/03/13 12:58:45;;;;;;;;;;;12.50;59.00;;;;;;5025102;28;19923;-58
2021/03/13 13:01:10;;;;;;;;;;;12.50;58.70;;;;;;5022363;28;19921;-57
2021/03/13 13:03:35;;;;;;;;;;;12.50;59.00;;;;;;5026180;28;19921;-57
2021/03/13 13:06:01;;;;;;;;;;;12.60;58.90;;;;;;5025677;28;20048;-58
2021/03/13 13:08:26;;;;;;;;;;;12.60;58.80;;;;;;5021503;28;20706;-60
2021/03/13 13:10:52;;;;;;;;;;;12.60;58.90;;;;;;5025764;28;20304;-59
2021/03/13 13:13:18;;;;;;;;;;;12.60;59.00;;;;;;5019881;28;19966;-57
2021/03/13 13:15:48;;;;;;;;;;;12.60;59.30;;;;;;5021895;28;20192;-59
2021/03/13 13:18:16;;;;;;;;;;;12.60;59.30;;;;;;5024063;28;19913;-60
2021/03/13 13:20:42;;;;;;;;;;;12.70;59.10;;;;;;5026305;28;20284;-58
2021/03/13 13:23:08;;;;;;;;;;;12.70;59.10;;;;;;5025032;28;19921;-57
2021/03/13 13:25:33;;;;;;;;;;;12.70;59.10;;;;;;5023094;28;19913;-60
2021/03/13 13:28:00;;;;;;;;;;;12.70;59.00;;;;;;5021865;28;19924;-58
2021/03/13 13:30:26;;;;;;;;;;;12.70;59.30;;;;;;5022144;28;19939;-59
2021/03/13 13:32:51;;;;;;;;;;;12.70;59.40;;;;;;5026296;28;20360;-58
2021/03/13 13:35:17;;;;;;;;;;;12.80;59.30;;;;;;5016583;28;19924;-57
2021/03/13 13:37:42;;;;;;;;;;;12.80;59.60;;;;;;5025921;28;19921;-57
2021/03/13 13:40:09;;;;;;;;;;;12.80;60.00;;;;;;5020370;28;19929;-59
2021/03/13 13:42:34;;;;;;;;;;;12.80;59.80;;;;;;5020043;28;19914;-58
2021/03/13 13:44:59;;;;;;;;;;;12.90;59.60;;;;;;5022035;28;19920;-58
2021/03/13 13:47:25;;;;;;;;;;;12.90;59.60;;;;;;5025583;28;19924;-60
2021/03/13 13:49:50;;;;;;;;;;;12.90;60.00;;;;;;5027265;28;19917;-61
2021/03/13 13:52:16;;;;;;;;;;;12.90;59.60;;;;;;5046798;28;19912;-60
2021/03/13 13:54:41;;;;;;;;;;;12.90;59.50;;;;;;5029398;28;19932;-59
2021/03/13 13:57:07;;;;;;;;;;;12.90;59.50;;;;;;5028198;28;19920;-58
2021/03/13 13:59:33;;;;;;;;;;;12.90;59.60;;;;;;5026248;28;19913;-58
2021/03/13 14:01:59;;;;;;;;;;;12.90;59.50;;;;;;5025580;28;19969;-60
2021/03/13 14:04:24;;;;;;;;;;;12.90;59.70;;;;;;5023107;28;19921;-57
2021/03/13 14:06:50;;;;;;;;;;;12.90;59.70;;;;;;5026018;28;19920;-59
2021/03/13 14:09:16;;;;;;;;;;;12.90;59.40;;;;;;5025038;28;19917;-60
2021/03/13 14:11:41;;;;;;;;;;;12.90;59.20;;;;;;5020728;28;19925;-57
2021/03/13 14:14:06;;;;;;;;;;;12.90;59.80;;;;;;5031938;28;19916;-60
2021/03/13 14:16:32;;;;;;;;;;;12.90;59.80;;;;;;5027194;28;19913;-59
2021/03/13 14:18:57;;;;;;;;;;;13.00;59.80;;;;;;5026237;28;19919;-59
2021/03/13 14:21:23;;;;;;;;;;;13.00;60.20;;;;;;5025381;28;19924;-60